sensor_id;sensor_type;location;lat;lon;timestamp;pressure;altitude;pressure_sealevel;temperature;humidity
33155;BME280;19511;42.682;23.332;2022-09-09T00:02:20;95342.22;;;16.39;100.00
33155;BME280;19511;42.682;23.332;2022-09-09T00:05:04;95383.25;;;16.68;100.00
33155;BME280;19511;42.682;23.332;2022-09-09T00:07:43;95381.03;;;16.62;100.00
33155;BME280;19511;42.682;23.332;2022-09-09T00:13:22;95389.41;;;16.62;100.00
33155;BME280;19511;42.682;23.332;2022-09-09T00:22:28;95384.91;;;16.52;100.00
33155;BME280;19511;42.682;23.332;2022-09-09T00:25:02;95383.91;;;16.46;100.00
33155;BME280;19511;42.682;23.332;2022-09-09T00:28:01;95343.78;;;16.27;100.00
33155;BME280;19511;42.682;23.332;2022-09-09T00:30:31;95359.53;;;16.33;100.00
33155;BME280;19511;42.682;23.332;2022-09-09T00:33:01;95360.41;;;16.30;100.00
33155;BME280;19511;42.682;23.332;2022-09-09T00:35:36;95366.78;;;16.31;100.00
33155;BME280;19511;42.682;23.332;2022-09-09T00:38:15;95359.41;;;16.24;100.00
33155;BME280;19511;42.682;23.332;2022-09-09T00:46:08;95359.84;;;16.23;100.00
33155;BME280;19511;42.682;23.332;2022-09-09T00:48:51;95290.84;;;15.81;100.00
33155;BME280;19511;42.682;23.332;2022-09-09T00:54:28;95367.19;;;16.16;100.00
33155;BME280;19511;42.682;23.332;2022-09-09T00:59:52;95298.50;;;15.77;100.00
33155;BME280;19511;42.682;23.332;2022-09-09T01:02:27;95346.06;;;16.03;100.00
33155;BME280;19511;42.682;23.332;2022-09-09T01:05:04;95361.03;;;16.09;100.00
33155;BME280;19511;42.682;23.332;2022-09-09T01:07:30;95341.34;;;15.99;100.00
33155;BME280;19511;42.682;23.332;2022-09-09T01:09:59;95357.53;;;16.05;100.00
33155;BME280;19511;42.682;23.332;2022-09-09T01:15:01;95362.63;;;16.23;100.00
33155;BME280;19511;42.682;23.332;2022-09-09T01:17:44;95358.47;;;16.14;100.00
33155;BME280;19511;42.682;23.332;2022-09-09T01:28:58;95307.06;;;15.86;100.00
33155;BME280;19511;42.682;23.332;2022-09-09T01:31:30;95361.69;;;16.13;100.00
33155;BME280;19511;42.682;23.332;2022-09-09T01:33:57;95350.63;;;16.09;100.00
33155;BME280;19511;42.682;23.332;2022-09-09T01:36:33;95364.81;;;16.15;100.00
33155;BME280;19511;42.682;23.332;2022-09-09T01:39:03;95373.06;;;16.06;100.00
33155;BME280;19511;42.682;23.332;2022-09-09T01:41:29;95376.38;;;16.00;100.00
33155;BME280;19511;42.682;23.332;2022-09-09T01:43:55;95376.56;;;15.93;100.00
33155;BME280;19511;42.682;23.332;2022-09-09T01:46:22;95368.56;;;15.95;100.00
33155;BME280;19511;42.682;23.332;2022-09-09T01:48:50;95378.44;;;15.83;100.00
33155;BME280;19511;42.682;23.332;2022-09-09T01:51:17;95375.72;;;15.80;100.00
33155;BME280;19511;42.682;23.332;2022-09-09T01:53:42;95382.50;;;15.79;100.00
33155;BME280;19511;42.682;23.332;2022-09-09T02:04:29;95336.84;;;15.43;100.00
33155;BME280;19511;42.682;23.332;2022-09-09T02:06:57;95330.41;;;15.30;100.00
33155;BME280;19511;42.682;23.332;2022-09-09T02:09:24;95381.25;;;15.67;100.00
33155;BME280;19511;42.682;23.332;2022-09-09T02:11:57;95372.28;;;15.59;100.00
33155;BME280;19511;42.682;23.332;2022-09-09T02:14:30;95350.16;;;15.52;100.00
33155;BME280;19511;42.682;23.332;2022-09-09T02:17:11;95352.75;;;15.59;100.00
33155;BME280;19511;42.682;23.332;2022-09-09T02:19:46;95351.00;;;15.49;100.00
33155;BME280;19511;42.682;23.332;2022-09-09T02:22:15;95352.94;;;15.52;100.00
33155;BME280;19511;42.682;23.332;2022-09-09T02:24:42;95355.38;;;15.50;100.00
33155;BME280;19511;42.682;23.332;2022-09-09T02:27:08;95376.63;;;15.60;100.00
33155;BME280;19511;42.682;23.332;2022-09-09T02:29:38;95266.03;;;14.78;100.00
33155;BME280;19511;42.682;23.332;2022-09-09T02:32:07;95359.38;;;15.49;100.00
33155;BME280;19511;42.682;23.332;2022-09-09T02:34:40;95376.81;;;15.53;100.00
33155;BME280;19511;42.682;23.332;2022-09-09T02:37:09;95375.41;;;15.45;100.00
33155;BME280;19511;42.682;23.332;2022-09-09T02:39:36;95378.56;;;15.47;100.00
33155;BME280;19511;42.682;23.332;2022-09-09T02:42:03;95314.50;;;14.97;100.00
33155;BME280;19511;42.682;23.332;2022-09-09T02:44:29;95388.91;;;15.46;100.00
33155;BME280;19511;42.682;23.332;2022-09-09T02:47:20;95371.78;;;15.31;100.00
33155;BME280;19511;42.682;23.332;2022-09-09T02:50:37;95393.81;;;15.42;100.00
33155;BME280;19511;42.682;23.332;2022-09-09T02:58:13;95387.91;;;15.40;100.00
33155;BME280;19511;42.682;23.332;2022-09-09T03:00:42;95371.44;;;15.29;100.00
33155;BME280;19511;42.682;23.332;2022-09-09T03:03:08;95390.56;;;15.44;100.00
33155;BME280;19511;42.682;23.332;2022-09-09T03:05:34;95382.72;;;15.39;100.00
33155;BME280;19511;42.682;23.332;2022-09-09T03:08:01;95390.56;;;15.44;100.00
33155;BME280;19511;42.682;23.332;2022-09-09T03:10:27;95402.06;;;15.46;100.00
33155;BME280;19511;42.682;23.332;2022-09-09T03:12:52;95389.03;;;15.43;100.00
33155;BME280;19511;42.682;23.332;2022-09-09T03:15:18;95386.03;;;15.33;100.00
33155;BME280;19511;42.682;23.332;2022-09-09T03:17:43;95339.81;;;15.03;100.00
33155;BME280;19511;42.682;23.332;2022-09-09T03:20:09;95392.34;;;15.38;100.00
33155;BME280;19511;42.682;23.332;2022-09-09T03:22:35;95394.69;;;15.39;100.00
33155;BME280;19511;42.682;23.332;2022-09-09T03:25:01;95386.03;;;15.33;100.00
33155;BME280;19511;42.682;23.332;2022-09-09T03:27:28;95389.38;;;15.28;100.00
33155;BME280;19511;42.682;23.332;2022-09-09T03:29:54;95382.31;;;15.24;100.00
33155;BME280;19511;42.682;23.332;2022-09-09T03:32:19;95337.75;;;14.91;100.00
33155;BME280;19511;42.682;23.332;2022-09-09T03:34:47;95324.13;;;14.76;100.00
33155;BME280;19511;42.682;23.332;2022-09-09T03:37:18;95356.72;;;14.96;100.00
33155;BME280;19511;42.682;23.332;2022-09-09T03:39:43;95379.78;;;15.13;100.00
33155;BME280;19511;42.682;23.332;2022-09-09T03:42:09;95383.25;;;15.17;100.00
33155;BME280;19511;42.682;23.332;2022-09-09T03:44:35;95319.09;;;14.71;100.00
33155;BME280;19511;42.682;23.332;2022-09-09T03:47:00;95383.69;;;15.15;100.00
33155;BME280;19511;42.682;23.332;2022-09-09T03:49:26;95383.69;;;15.15;100.00
33155;BME280;19511;42.682;23.332;2022-09-09T03:51:55;95390.94;;;15.13;100.00
33155;BME280;19511;42.682;23.332;2022-09-09T03:54:22;95323.00;;;14.74;100.00
33155;BME280;19511;42.682;23.332;2022-09-09T03:56:47;95394.31;;;15.21;100.00
33155;BME280;19511;42.682;23.332;2022-09-09T03:59:13;95394.06;;;15.31;100.00
33155;BME280;19511;42.682;23.332;2022-09-09T04:01:39;95400.50;;;15.28;100.00
33155;BME280;19511;42.682;23.332;2022-09-09T04:04:05;95402.25;;;15.22;100.00
33155;BME280;19511;42.682;23.332;2022-09-09T04:06:30;95394.59;;;15.26;100.00
33155;BME280;19511;42.682;23.332;2022-09-09T04:08:56;95338.41;;;14.78;100.00
33155;BME280;19511;42.682;23.332;2022-09-09T04:11:21;95335.56;;;14.82;100.00
33155;BME280;19511;42.682;23.332;2022-09-09T04:13:47;95334.84;;;14.78;100.00
33155;BME280;19511;42.682;23.332;2022-09-09T04:16:13;95401.38;;;15.25;100.00
33155;BME280;19511;42.682;23.332;2022-09-09T04:18:39;95316.75;;;14.69;100.00
33155;BME280;19511;42.682;23.332;2022-09-09T04:21:05;95385.88;;;15.08;100.00
33155;BME280;19511;42.682;23.332;2022-09-09T04:23:32;95332.50;;;14.76;100.00
33155;BME280;19511;42.682;23.332;2022-09-09T04:25:59;95394.41;;;15.17;100.00
33155;BME280;19511;42.682;23.332;2022-09-09T04:28:27;95330.41;;;14.80;100.00
33155;BME280;19511;42.682;23.332;2022-09-09T04:30:53;95396.66;;;15.22;100.00
33155;BME280;19511;42.682;23.332;2022-09-09T04:33:20;95398.94;;;15.27;100.00
33155;BME280;19511;42.682;23.332;2022-09-09T04:35:48;95407.13;;;15.34;100.00
33155;BME280;19511;42.682;23.332;2022-09-09T04:38:15;95390.94;;;15.29;100.00
33155;BME280;19511;42.682;23.332;2022-09-09T04:40:46;95397.91;;;15.38;100.00
33155;BME280;19511;42.682;23.332;2022-09-09T04:43:12;95396.59;;;15.42;100.00
33155;BME280;19511;42.682;23.332;2022-09-09T04:45:37;95402.22;;;15.55;100.00
33155;BME280;19511;42.682;23.332;2022-09-09T04:48:04;95400.56;;;15.58;100.00
33155;BME280;19511;42.682;23.332;2022-09-09T04:50:30;95390.91;;;15.62;100.00
33155;BME280;19511;42.682;23.332;2022-09-09T04:52:55;95394.97;;;15.74;100.00
33155;BME280;19511;42.682;23.332;2022-09-09T04:55:20;95380.25;;;15.90;100.00
33155;BME280;19511;42.682;23.332;2022-09-09T04:57:46;95325.03;;;15.68;100.00
33155;BME280;19511;42.682;23.332;2022-09-09T05:00:12;95343.44;;;15.95;100.00
33155;BME280;19511;42.682;23.332;2022-09-09T05:02:39;95377.59;;;16.29;100.00
33155;BME280;19511;42.682;23.332;2022-09-09T05:05:05;95316.69;;;15.98;100.00
33155;BME280;19511;42.682;23.332;2022-09-09T05:07:31;95376.75;;;16.58;100.00
33155;BME280;19511;42.682;23.332;2022-09-09T05:09:57;95339.91;;;16.50;100.00
33155;BME280;19511;42.682;23.332;2022-09-09T05:12:23;95366.06;;;16.82;100.00
33155;BME280;19511;42.682;23.332;2022-09-09T05:14:51;95288.31;;;16.42;100.00
33155;BME280;19511;42.682;23.332;2022-09-09T05:17:16;95381.69;;;16.79;100.00
33155;BME280;19511;42.682;23.332;2022-09-09T05:19:42;95376.34;;;16.85;100.00
33155;BME280;19511;42.682;23.332;2022-09-09T05:22:08;95307.63;;;16.62;100.00
33155;BME280;19511;42.682;23.332;2022-09-09T05:24:33;95301.59;;;16.63;100.00
33155;BME280;19511;42.682;23.332;2022-09-09T05:26:59;95306.16;;;16.83;100.00
33155;BME280;19511;42.682;23.332;2022-09-09T05:29:27;95365.97;;;17.24;100.00
33155;BME280;19511;42.682;23.332;2022-09-09T05:31:52;95354.88;;;17.34;100.00
33155;BME280;19511;42.682;23.332;2022-09-09T05:34:18;95358.56;;;17.30;100.00
33155;BME280;19511;42.682;23.332;2022-09-09T05:36:43;95292.09;;;17.00;100.00
33155;BME280;19511;42.682;23.332;2022-09-09T05:39:09;95355.38;;;17.54;100.00
33155;BME280;19511;42.682;23.332;2022-09-09T05:41:37;95354.59;;;17.67;100.00
33155;BME280;19511;42.682;23.332;2022-09-09T05:44:02;95368.00;;;17.72;100.00
33155;BME280;19511;42.682;23.332;2022-09-09T05:46:28;95302.28;;;17.41;100.00
33155;BME280;19511;42.682;23.332;2022-09-09T05:48:57;95369.63;;;17.82;100.00
33155;BME280;19511;42.682;23.332;2022-09-09T05:51:27;95306.78;;;17.39;100.00
33155;BME280;19511;42.682;23.332;2022-09-09T05:53:55;95362.41;;;17.72;100.00
33155;BME280;19511;42.682;23.332;2022-09-09T05:56:25;95336.28;;;17.75;100.00
33155;BME280;19511;42.682;23.332;2022-09-09T05:58:52;95371.59;;;18.07;100.00
33155;BME280;19511;42.682;23.332;2022-09-09T06:01:30;95356.34;;;18.08;100.00
33155;BME280;19511;42.682;23.332;2022-09-09T06:03:56;95374.25;;;18.33;100.00
33155;BME280;19511;42.682;23.332;2022-09-09T06:06:26;95380.09;;;18.48;100.00
33155;BME280;19511;42.682;23.332;2022-09-09T06:08:54;95391.44;;;18.67;100.00
33155;BME280;19511;42.682;23.332;2022-09-09T06:11:24;95379.28;;;18.70;100.00
33155;BME280;19511;42.682;23.332;2022-09-09T06:13:50;95333.41;;;18.45;100.00
33155;BME280;19511;42.682;23.332;2022-09-09T06:16:22;95351.63;;;18.50;100.00
33155;BME280;19511;42.682;23.332;2022-09-09T06:18:51;95305.16;;;18.30;100.00
33155;BME280;19511;42.682;23.332;2022-09-09T06:21:19;95310.50;;;18.37;100.00
33155;BME280;19511;42.682;23.332;2022-09-09T06:23:45;95371.75;;;18.89;100.00
33155;BME280;19511;42.682;23.332;2022-09-09T06:26:19;95312.88;;;18.48;100.00
33155;BME280;19511;42.682;23.332;2022-09-09T06:28:46;95374.94;;;18.91;100.00
33155;BME280;19511;42.682;23.332;2022-09-09T06:31:14;95383.34;;;18.91;100.00
33155;BME280;19511;42.682;23.332;2022-09-09T06:33:43;95384.31;;;18.97;100.00
33155;BME280;19511;42.682;23.332;2022-09-09T06:36:29;95319.56;;;18.73;100.00
33155;BME280;19511;42.682;23.332;2022-09-09T06:38:56;95360.09;;;19.22;100.00
33155;BME280;19511;42.682;23.332;2022-09-09T06:41:23;95361.78;;;19.19;100.00
33155;BME280;19511;42.682;23.332;2022-09-09T06:43:49;95346.56;;;19.30;100.00
33155;BME280;19511;42.682;23.332;2022-09-09T06:48:42;95353.78;;;19.49;100.00
33155;BME280;19511;42.682;23.332;2022-09-09T06:51:19;95359.69;;;19.51;100.00
33155;BME280;19511;42.682;23.332;2022-09-09T06:53:46;95374.22;;;19.68;100.00
33155;BME280;19511;42.682;23.332;2022-09-09T06:58:56;95372.09;;;20.10;100.00
33155;BME280;19511;42.682;23.332;2022-09-09T07:01:27;95323.13;;;19.83;100.00
33155;BME280;19511;42.682;23.332;2022-09-09T07:03:55;95378.03;;;20.30;100.00
33155;BME280;19511;42.682;23.332;2022-09-09T07:08:52;95367.06;;;20.42;100.00
33155;BME280;19511;42.682;23.332;2022-09-09T07:11:19;95367.72;;;20.46;100.00
33155;BME280;19511;42.682;23.332;2022-09-09T07:13:45;95363.31;;;20.73;100.00
33155;BME280;19511;42.682;23.332;2022-09-09T07:16:13;95360.00;;;20.74;100.00
33155;BME280;19511;42.682;23.332;2022-09-09T07:18:39;95376.06;;;20.83;100.00
33155;BME280;19511;42.682;23.332;2022-09-09T07:21:05;95307.28;;;20.50;100.00
33155;BME280;19511;42.682;23.332;2022-09-09T07:23:32;95361.50;;;20.94;100.00
33155;BME280;19511;42.682;23.332;2022-09-09T07:25:58;95361.69;;;20.90;100.00
33155;BME280;19511;42.682;23.332;2022-09-09T07:28:25;95344.19;;;20.86;100.00
33155;BME280;19511;42.682;23.332;2022-09-09T07:30:59;95296.31;;;20.71;100.00
33155;BME280;19511;42.682;23.332;2022-09-09T07:33:29;95350.84;;;21.07;100.00
33155;BME280;19511;42.682;23.332;2022-09-09T07:36:03;95330.44;;;21.21;100.00
33155;BME280;19511;42.682;23.332;2022-09-09T07:38:29;95341.94;;;21.33;100.00
33155;BME280;19511;42.682;23.332;2022-09-09T07:41:06;95348.75;;;21.50;100.00
33155;BME280;19511;42.682;23.332;2022-09-09T07:43:34;95361.06;;;21.62;100.00
33155;BME280;19511;42.682;23.332;2022-09-09T07:46:00;95297.34;;;21.41;100.00
33155;BME280;19511;42.682;23.332;2022-09-09T07:48:29;95348.38;;;22.06;100.00
33155;BME280;19511;42.682;23.332;2022-09-09T07:51:07;95315.66;;;22.09;100.00
33155;BME280;19511;42.682;23.332;2022-09-09T07:53:34;95357.13;;;22.47;100.00
33155;BME280;19511;42.682;23.332;2022-09-09T07:56:06;95354.78;;;22.61;100.00
33155;BME280;19511;42.682;23.332;2022-09-09T07:58:32;95356.16;;;22.65;100.00
33155;BME280;19511;42.682;23.332;2022-09-09T08:00:58;95355.88;;;22.78;100.00
33155;BME280;19511;42.682;23.332;2022-09-09T08:03:23;95348.97;;;22.94;100.00
33155;BME280;19511;42.682;23.332;2022-09-09T08:05:49;95285.56;;;22.60;100.00
33155;BME280;19511;42.682;23.332;2022-09-09T08:08:14;95353.22;;;23.05;100.00
33155;BME280;19511;42.682;23.332;2022-09-09T08:10:41;95343.09;;;22.98;100.00
33155;BME280;19511;42.682;23.332;2022-09-09T08:13:06;95299.34;;;22.88;100.00
33155;BME280;19511;42.682;23.332;2022-09-09T08:15:33;95337.25;;;23.02;100.00
33155;BME280;19511;42.682;23.332;2022-09-09T08:17:59;95323.31;;;23.28;100.00
33155;BME280;19511;42.682;23.332;2022-09-09T08:20:25;95337.72;;;23.66;100.00
33155;BME280;19511;42.682;23.332;2022-09-09T08:22:50;95273.59;;;23.30;100.00
33155;BME280;19511;42.682;23.332;2022-09-09T08:25:15;95328.72;;;23.88;100.00
33155;BME280;19511;42.682;23.332;2022-09-09T08:27:41;95326.75;;;23.73;100.00
33155;BME280;19511;42.682;23.332;2022-09-09T08:30:07;95343.81;;;23.64;100.00
33155;BME280;19511;42.682;23.332;2022-09-09T08:32:32;95337.50;;;23.90;100.00
33155;BME280;19511;42.682;23.332;2022-09-09T08:35:00;95326.06;;;23.99;100.00
33155;BME280;19511;42.682;23.332;2022-09-09T08:37:25;95336.28;;;24.17;100.00
33155;BME280;19511;42.682;23.332;2022-09-09T08:39:51;95289.28;;;23.93;100.00
33155;BME280;19511;42.682;23.332;2022-09-09T08:48:42;95274.28;;;23.46;100.00
33155;BME280;19511;42.682;23.332;2022-09-09T08:50:58;95318.22;;;24.09;100.00
33155;BME280;19511;42.682;23.332;2022-09-09T08:53:41;95311.34;;;24.16;100.00
33155;BME280;19511;42.682;23.332;2022-09-09T08:56:12;95319.41;;;24.23;100.00
33155;BME280;19511;42.682;23.332;2022-09-09T08:58:50;95314.59;;;24.08;100.00
33155;BME280;19511;42.682;23.332;2022-09-09T09:09:22;95324.69;;;24.62;100.00
33155;BME280;19511;42.682;23.332;2022-09-09T09:12:01;95321.56;;;24.86;100.00
33155;BME280;19511;42.682;23.332;2022-09-09T09:14:34;95317.13;;;25.12;100.00
33155;BME280;19511;42.682;23.332;2022-09-09T09:19:28;95307.69;;;25.26;100.00
33155;BME280;19511;42.682;23.332;2022-09-09T09:22:06;95312.09;;;25.27;100.00
33155;BME280;19511;42.682;23.332;2022-09-09T09:24:52;95311.19;;;25.09;100.00
33155;BME280;19511;42.682;23.332;2022-09-09T09:27:36;95311.78;;;24.87;100.00
33155;BME280;19511;42.682;23.332;2022-09-09T09:30:14;95310.69;;;24.79;100.00
33155;BME280;19511;42.682;23.332;2022-09-09T09:32:47;95319.22;;;24.85;100.00
33155;BME280;19511;42.682;23.332;2022-09-09T09:35:15;95307.25;;;25.01;100.00
33155;BME280;19511;42.682;23.332;2022-09-09T09:37:41;95312.19;;;25.06;100.00
33155;BME280;19511;42.682;23.332;2022-09-09T09:40:17;95297.47;;;24.97;100.00
33155;BME280;19511;42.682;23.332;2022-09-09T09:43:00;95302.81;;;25.26;100.00
33155;BME280;19511;42.682;23.332;2022-09-09T09:45:34;95251.09;;;25.26;100.00
33155;BME280;19511;42.682;23.332;2022-09-09T09:48:05;95296.25;;;25.41;100.00
33155;BME280;19511;42.682;23.332;2022-09-09T09:50:32;95292.44;;;25.50;100.00
33155;BME280;19511;42.682;23.332;2022-09-09T09:53:04;95287.81;;;25.52;100.00
33155;BME280;19511;42.682;23.332;2022-09-09T09:55:31;95279.66;;;25.71;100.00
33155;BME280;19511;42.682;23.332;2022-09-09T09:58:06;95269.84;;;25.61;100.00
33155;BME280;19511;42.682;23.332;2022-09-09T10:00:47;95223.97;;;25.08;100.00
33155;BME280;19511;42.682;23.332;2022-09-09T10:03:31;95273.66;;;25.52;100.00
33155;BME280;19511;42.682;23.332;2022-09-09T10:05:57;95269.13;;;25.34;100.00
33155;BME280;19511;42.682;23.332;2022-09-09T10:08:25;95278.84;;;25.22;100.00
33155;BME280;19511;42.682;23.332;2022-09-09T10:11:16;95285.91;;;25.38;100.00
33155;BME280;19511;42.682;23.332;2022-09-09T10:14:19;95256.16;;;25.10;100.00
33155;BME280;19511;42.682;23.332;2022-09-09T10:16:55;95295.75;;;25.48;100.00
33155;BME280;19511;42.682;23.332;2022-09-09T10:19:35;95287.97;;;25.37;100.00
33155;BME280;19511;42.682;23.332;2022-09-09T10:30:28;95290.09;;;25.48;100.00
33155;BME280;19511;42.682;23.332;2022-09-09T10:33:08;95298.63;;;25.54;100.00
33155;BME280;19511;42.682;23.332;2022-09-09T10:35:45;95297.59;;;25.57;100.00
33155;BME280;19511;42.682;23.332;2022-09-09T10:38:40;95297.34;;;25.55;100.00
33155;BME280;19511;42.682;23.332;2022-09-09T10:46:55;95289.66;;;25.67;100.00
33155;BME280;19511;42.682;23.332;2022-09-09T10:52:26;95305.69;;;25.75;100.00
33155;BME280;19511;42.682;23.332;2022-09-09T10:57:32;95296.91;;;25.73;100.00
33155;BME280;19511;42.682;23.332;2022-09-09T11:00:03;95301.81;;;25.79;100.00
33155;BME280;19511;42.682;23.332;2022-09-09T11:02:32;95296.19;;;25.84;100.00
33155;BME280;19511;42.682;23.332;2022-09-09T11:05:18;95291.50;;;25.75;100.00
33155;BME280;19511;42.682;23.332;2022-09-09T11:07:58;95293.59;;;25.81;100.00
33155;BME280;19511;42.682;23.332;2022-09-09T11:10:54;95307.25;;;25.82;100.00
33155;BME280;19511;42.682;23.332;2022-09-09T11:18:44;95288.34;;;25.62;100.00
33155;BME280;19511;42.682;23.332;2022-09-09T11:21:22;95286.03;;;25.55;100.00
33155;BME280;19511;42.682;23.332;2022-09-09T11:24:10;95282.22;;;25.69;100.00
33155;BME280;19511;42.682;23.332;2022-09-09T11:26:51;95279.19;;;25.84;100.00
33155;BME280;19511;42.682;23.332;2022-09-09T11:32:03;95276.84;;;25.77;100.00
33155;BME280;19511;42.682;23.332;2022-09-09T11:40:29;95249.28;;;25.78;100.00
33155;BME280;19511;42.682;23.332;2022-09-09T11:43:15;95240.72;;;25.61;100.00
33155;BME280;19511;42.682;23.332;2022-09-09T11:45:52;95228.53;;;25.37;100.00
33155;BME280;19511;42.682;23.332;2022-09-09T11:48:39;95179.78;;;25.22;100.00
33155;BME280;19511;42.682;23.332;2022-09-09T11:53:52;95150.09;;;25.00;100.00
33155;BME280;19511;42.682;23.332;2022-09-09T11:56:42;95210.13;;;25.21;100.00
33155;BME280;19511;42.682;23.332;2022-09-09T12:01:55;95213.66;;;25.59;100.00
33155;BME280;19511;42.682;23.332;2022-09-09T12:14:55;95192.63;;;25.89;100.00
33155;BME280;19511;42.682;23.332;2022-09-09T12:17:26;95192.94;;;26.02;100.00
33155;BME280;19511;42.682;23.332;2022-09-09T12:20:26;95192.97;;;26.25;100.00
33155;BME280;19511;42.682;23.332;2022-09-09T12:23:35;95187.06;;;26.34;100.00
33155;BME280;19511;42.682;23.332;2022-09-09T12:31:39;95183.19;;;26.26;100.00
33155;BME280;19511;42.682;23.332;2022-09-09T12:34:15;95173.13;;;26.48;100.00
33155;BME280;19511;42.682;23.332;2022-09-09T12:36:43;95130.84;;;26.50;100.00
33155;BME280;19511;42.682;23.332;2022-09-09T12:39:40;95172.38;;;26.76;100.00
33155;BME280;19511;42.682;23.332;2022-09-09T12:42:19;95139.63;;;26.46;100.00
33155;BME280;19511;42.682;23.332;2022-09-09T12:45:20;95158.41;;;26.55;100.00
33155;BME280;19511;42.682;23.332;2022-09-09T12:50:19;95165.91;;;26.47;100.00
33155;BME280;19511;42.682;23.332;2022-09-09T12:52:49;95162.81;;;26.56;100.00
33155;BME280;19511;42.682;23.332;2022-09-09T12:55:21;95151.75;;;26.41;100.00
33155;BME280;19511;42.682;23.332;2022-09-09T12:57:51;95148.13;;;26.75;100.00
33155;BME280;19511;42.682;23.332;2022-09-09T13:00:21;95147.84;;;26.89;100.00
33155;BME280;19511;42.682;23.332;2022-09-09T13:02:51;95138.06;;;26.79;100.00
33155;BME280;19511;42.682;23.332;2022-09-09T13:05:33;95134.94;;;26.83;100.00
33155;BME280;19511;42.682;23.332;2022-09-09T13:08:08;95133.88;;;26.97;100.00
33155;BME280;19511;42.682;23.332;2022-09-09T13:10:51;95142.88;;;27.07;100.00
33155;BME280;19511;42.682;23.332;2022-09-09T13:13:26;95145.50;;;26.88;100.00
33155;BME280;19511;42.682;23.332;2022-09-09T13:15:58;95143.44;;;26.71;100.00
33155;BME280;19511;42.682;23.332;2022-09-09T13:18:42;95128.75;;;26.67;100.00
33155;BME280;19511;42.682;23.332;2022-09-09T13:21:08;95141.38;;;26.95;100.00
33155;BME280;19511;42.682;23.332;2022-09-09T13:23:36;95131.75;;;27.15;100.00
33155;BME280;19511;42.682;23.332;2022-09-09T13:26:05;95073.06;;;26.76;100.00
33155;BME280;19511;42.682;23.332;2022-09-09T13:28:36;95113.53;;;26.76;100.00
33155;BME280;19511;42.682;23.332;2022-09-09T13:31:04;95118.69;;;26.66;100.00
33155;BME280;19511;42.682;23.332;2022-09-09T13:33:37;95118.47;;;26.47;100.00
33155;BME280;19511;42.682;23.332;2022-09-09T13:36:04;95127.25;;;26.38;100.00
33155;BME280;19511;42.682;23.332;2022-09-09T13:38:38;95111.78;;;26.45;100.00
33155;BME280;19511;42.682;23.332;2022-09-09T13:41:06;95121.06;;;26.17;100.00
33155;BME280;19511;42.682;23.332;2022-09-09T13:43:45;95075.44;;;25.92;100.00
33155;BME280;19511;42.682;23.332;2022-09-09T13:46:38;95095.28;;;26.43;100.00
33155;BME280;19511;42.682;23.332;2022-09-09T13:54:06;95094.50;;;26.54;100.00
33155;BME280;19511;42.682;23.332;2022-09-09T13:56:42;95086.50;;;26.47;100.00
33155;BME280;19511;42.682;23.332;2022-09-09T13:59:16;95088.84;;;26.43;100.00
33155;BME280;19511;42.682;23.332;2022-09-09T14:01:49;95076.72;;;26.48;100.00
33155;BME280;19511;42.682;23.332;2022-09-09T14:04:19;95081.31;;;26.62;100.00
33155;BME280;19511;42.682;23.332;2022-09-09T14:06:48;95102.41;;;26.95;100.00
33155;BME280;19511;42.682;23.332;2022-09-09T14:09:16;95055.28;;;26.52;100.00
33155;BME280;19511;42.682;23.332;2022-09-09T14:11:42;95091.09;;;26.72;100.00
33155;BME280;19511;42.682;23.332;2022-09-09T14:14:12;95089.47;;;27.00;100.00
33155;BME280;19511;42.682;23.332;2022-09-09T14:16:37;95078.47;;;26.73;100.00
33155;BME280;19511;42.682;23.332;2022-09-09T14:19:08;95085.66;;;26.69;100.00
33155;BME280;19511;42.682;23.332;2022-09-09T14:21:34;95081.56;;;26.59;100.00
33155;BME280;19511;42.682;23.332;2022-09-09T14:23:59;95074.63;;;26.54;100.00
33155;BME280;19511;42.682;23.332;2022-09-09T14:26:25;95071.06;;;26.36;100.00
33155;BME280;19511;42.682;23.332;2022-09-09T14:28:51;95080.84;;;26.35;100.00
33155;BME280;19511;42.682;23.332;2022-09-09T14:31:21;95079.53;;;26.59;100.00
33155;BME280;19511;42.682;23.332;2022-09-09T14:33:46;95084.66;;;26.55;100.00
33155;BME280;19511;42.682;23.332;2022-09-09T14:36:12;95083.38;;;26.56;100.00
33155;BME280;19511;42.682;23.332;2022-09-09T14:38:38;95084.44;;;26.53;100.00
33155;BME280;19511;42.682;23.332;2022-09-09T14:41:10;95060.75;;;26.33;100.00
33155;BME280;19511;42.682;23.332;2022-09-09T14:43:38;95075.16;;;26.47;100.00
33155;BME280;19511;42.682;23.332;2022-09-09T14:46:09;95075.16;;;26.47;100.00
33155;BME280;19511;42.682;23.332;2022-09-09T14:48:36;95030.63;;;26.02;100.00
33155;BME280;19511;42.682;23.332;2022-09-09T14:53:35;95074.38;;;26.58;100.00
33155;BME280;19511;42.682;23.332;2022-09-09T14:56:21;95073.88;;;26.48;100.00
33155;BME280;19511;42.682;23.332;2022-09-09T14:58:49;95063.09;;;26.01;100.00
33155;BME280;19511;42.682;23.332;2022-09-09T15:01:18;95087.53;;;26.04;100.00
33155;BME280;19511;42.682;23.332;2022-09-09T15:03:53;95097.09;;;26.01;100.00
33155;BME280;19511;42.682;23.332;2022-09-09T15:06:23;95089.09;;;25.99;100.00
33155;BME280;19511;42.682;23.332;2022-09-09T15:08:50;95099.41;;;26.02;100.00
33155;BME280;19511;42.682;23.332;2022-09-09T15:11:17;95048.91;;;25.67;100.00
33155;BME280;19511;42.682;23.332;2022-09-09T15:13:43;95096.84;;;25.93;100.00
33155;BME280;19511;42.682;23.332;2022-09-09T15:16:19;95107.38;;;25.92;100.00